Wakefield, MI

2:32 AM CST on December 28, 2014 (GMT -0600)
Sunday Lake | Change Station
CLOSE
Current Station
Personal Weather Station
Location: Wakefield, MI
Elevation: 1600 ft
Nearby Weather Stations

Elev 1600 ft 46.48 °N, 89.95 °W | Updated 6 seconds ago

Mostly Cloudy
Mostly Cloudy
10.0 °F
Feels Like 10 °F
N
0.0
Wind Variable Wind from North
Gusts 0.0 mph

Today
High -- | Low -- °F
--% Chance of Precip.
Yesterday
High -- | Low -- °F
Precip. -- in
7:43 AM 4:19 PM
Waxing Crescent, 45% visible
Pressure 29.96 in
Visibility 10.0 miles
Clouds Few 6500 ft
Overcast 9000 ft
Windchill 10 °F
Dew Point 8 °F
Humidity 90%
Rainfall 0.00 in
Snow Depth Not available.
UV 0.0 out of 12
Pollen .10 out of 12
Air Quality Not available.
Flu Activity Not available.
METAR KIWD 280815Z AUTO 26009KT 10SM FEW065 OVC090 M09/M12 A2996 RMK AO1

More Conditions Fewer Conditions

Pressure 29.96 in
Visibility 10.0 miles
Clouds Few 6500 ft
Overcast 9000 ft
Windchill 10 °F
Dew Point 8 °F
Humidity 90%
Rainfall 0.00 in
Snow Depth Not available.
UV 0.0 out of 12
Pollen .10 out of 12
Air Quality Not available.
Flu Activity Not available.
METAR KIWD 280815Z AUTO 26009KT 10SM FEW065 OVC090 M09/M12 A2996 RMK AO1

More Conditions Fewer Conditions

10-Day Weather Forecast

Almanac

Astronomy

Dec. 28, 2014 Rise Set
Actual Time
Civil Twilight
Nautical Twilight
Astronomical Twilight
Moon
Length of Visible Light
Length of Day
Tomorrow will be .
, % of the Moon is Illuminated

Today's Extremes

State Highs State Lows

Community

WunderPhotos

Upload Photos

1,781,210 photos uploaded!

WunderBlogs® & News

Nearby

Air Quality

  Air Quality AQ Index Pollutant
Not available.

Snow Depth

Station Depth Elevation

Earthquake Activity

City Distance Mag. Time & Date
Minimum magnitude displayed is 2.5.

Coastal Water Temperatures

Place Temperature

Nearby Weather Stations